createdAt,value
2022-07-26T00:03:00.771Z,4.03
2022-07-26T00:06:03.225Z,4.60
2022-07-26T00:09:05.787Z,4.32
2022-07-26T00:12:08.851Z,4.82
2022-07-26T00:15:11.605Z,3.87
2022-07-26T00:18:14.871Z,4.45
2022-07-26T00:21:17.135Z,4.00
2022-07-26T00:24:19.539Z,3.40
2022-07-26T00:27:22.392Z,4.20
2022-07-26T00:30:24.960Z,4.18
2022-07-26T00:33:27.102Z,3.90
2022-07-26T00:36:29.799Z,3.83
2022-07-26T00:39:31.928Z,4.47
2022-07-26T00:42:34.483Z,4.95
2022-07-26T00:45:36.671Z,5.37
2022-07-26T00:48:39.196Z,3.70
2022-07-26T00:51:42.060Z,4.65
2022-07-26T00:54:49.244Z,5.18
2022-07-26T00:57:51.744Z,4.70
2022-07-26T01:00:54.172Z,3.70
2022-07-26T01:03:56.383Z,3.70
2022-07-26T01:06:59.362Z,3.73
2022-07-26T01:10:03.644Z,4.43
2022-07-26T01:13:06.269Z,4.87
2022-07-26T01:16:08.487Z,4.62
2022-07-26T01:19:10.986Z,4.30
2022-07-26T01:22:14.728Z,4.72
2022-07-26T01:25:17.436Z,4.60
2022-07-26T01:28:20.349Z,4.43
2022-07-26T01:34:24.957Z,4.40
2022-07-26T01:37:27.512Z,5.40
2022-07-26T01:40:29.640Z,5.00
2022-07-26T01:43:32.106Z,5.43
2022-07-26T01:46:35.220Z,5.25
2022-07-26T01:52:39.547Z,5.43
2022-07-26T01:55:41.967Z,4.87
2022-07-26T01:58:44.280Z,5.57
2022-07-26T02:01:46.893Z,4.82
2022-07-26T02:04:58.729Z,5.82
2022-07-26T02:08:01.171Z,6.15
2022-07-26T02:11:04.485Z,4.82
2022-07-26T02:14:06.907Z,6.50
2022-07-26T02:17:10.337Z,5.40
2022-07-26T02:20:12.902Z,5.45
2022-07-26T02:23:15.301Z,5.18
2022-07-26T02:26:17.424Z,5.30
2022-07-26T02:29:19.836Z,4.82
2022-07-26T02:32:21.972Z,5.35
2022-07-26T02:35:24.391Z,5.15
2022-07-26T02:38:26.532Z,5.12
2022-07-26T02:41:28.935Z,4.05
2022-07-26T02:44:31.056Z,4.40
2022-07-26T02:47:33.860Z,5.62
2022-07-26T02:50:36.084Z,5.17
2022-07-26T02:53:38.506Z,4.70
2022-07-26T02:56:40.652Z,4.68
2022-07-26T02:59:43.050Z,3.83
2022-07-26T03:02:45.447Z,4.90
2022-07-26T03:05:47.895Z,4.22
2022-07-26T03:08:50.730Z,5.25
2022-07-26T03:11:53.235Z,4.60
2022-07-26T03:14:55.506Z,5.12
2022-07-26T03:17:58.035Z,4.90
2022-07-26T03:21:00.189Z,5.25
2022-07-26T03:24:02.570Z,5.60
2022-07-26T03:27:04.749Z,4.62
2022-07-26T03:30:08.117Z,4.63
2022-07-26T03:33:10.297Z,4.28
2022-07-26T03:36:15.570Z,4.82
2022-07-26T03:39:18.108Z,4.20
2022-07-26T03:42:20.494Z,4.07
2022-07-26T03:45:22.647Z,4.72
2022-07-26T03:48:25.051Z,4.33
2022-07-26T03:51:27.235Z,5.25
2022-07-26T03:54:29.707Z,4.70
2022-07-26T03:57:31.826Z,4.70
2022-07-26T04:00:34.416Z,5.93
2022-07-26T04:03:36.814Z,4.73
2022-07-26T04:06:41.042Z,4.32
2022-07-26T04:09:43.560Z,5.12
2022-07-26T04:12:45.693Z,3.92
2022-07-26T04:15:48.132Z,4.33
2022-07-26T04:18:50.296Z,4.90
2022-07-26T04:21:52.690Z,5.03
2022-07-26T04:24:55.866Z,4.00
2022-07-26T04:27:58.677Z,4.65
2022-07-26T04:31:01.588Z,22.55
2022-07-26T04:34:05.379Z,7.97
2022-07-26T04:37:07.822Z,4.28
2022-07-26T04:40:15.404Z,4.20
2022-07-26T04:43:19.323Z,4.15
2022-07-26T04:46:21.887Z,4.78
2022-07-26T04:49:24.043Z,4.80
2022-07-26T04:52:26.455Z,4.43
2022-07-26T04:55:28.772Z,5.15
2022-07-26T04:58:31.246Z,4.28
2022-07-26T05:01:33.399Z,4.60
2022-07-26T05:04:36.207Z,4.85
2022-07-26T05:07:41.845Z,4.35
2022-07-26T05:10:45.177Z,5.10
2022-07-26T05:13:47.424Z,4.20
2022-07-26T05:16:50.033Z,3.60
2022-07-26T05:19:54.497Z,3.97
2022-07-26T05:22:57.896Z,4.30
2022-07-26T05:26:00.014Z,4.78
2022-07-26T05:29:02.649Z,3.70
2022-07-26T05:32:05.147Z,4.20
2022-07-26T05:35:08.379Z,4.07
2022-07-26T05:38:10.673Z,4.25
2022-07-26T05:41:13.137Z,4.45
2022-07-26T05:44:16.070Z,5.47
2022-07-26T05:47:21.179Z,6.35
2022-07-26T05:50:23.323Z,4.60
2022-07-26T05:53:25.741Z,4.10
2022-07-26T05:56:29.415Z,4.17
2022-07-26T05:59:33.266Z,4.30
2022-07-26T06:02:35.599Z,4.25
2022-07-26T06:05:38.051Z,5.18
2022-07-26T06:08:40.270Z,4.37
2022-07-26T06:11:42.908Z,5.30
2022-07-26T06:14:45.444Z,4.55
2022-07-26T06:17:47.974Z,4.55
2022-07-26T06:20:50.760Z,3.92
2022-07-26T06:23:53.241Z,4.40
2022-07-26T06:27:04.733Z,4.75
2022-07-26T06:30:08.753Z,4.78
2022-07-26T06:33:11.752Z,4.87
2022-07-26T06:36:14.323Z,5.32
2022-07-26T06:39:16.441Z,4.70
2022-07-26T06:42:19.005Z,5.37
2022-07-26T06:48:23.869Z,5.07
2022-07-26T06:51:26.026Z,5.00
2022-07-26T06:54:28.554Z,4.43
2022-07-26T06:57:30.733Z,4.78
2022-07-26T07:00:33.278Z,6.00
2022-07-26T07:03:35.437Z,5.40
2022-07-26T07:06:37.839Z,5.00
2022-07-26T07:09:40.422Z,4.90
2022-07-26T07:12:44.786Z,5.25
2022-07-26T07:15:46.925Z,4.78
2022-07-26T07:18:51.279Z,5.07
2022-07-26T07:21:53.492Z,4.87
2022-07-26T07:27:58.457Z,4.60
2022-07-26T07:31:00.895Z,4.35
2022-07-26T07:34:03.852Z,4.30
2022-07-26T07:37:07.759Z,5.20
2022-07-26T07:43:13.218Z,4.90
2022-07-26T07:46:15.449Z,5.07
2022-07-26T07:49:17.960Z,5.18
2022-07-26T07:52:20.372Z,4.75
2022-07-26T07:55:40.302Z,5.05
2022-07-26T07:58:43.793Z,6.20
2022-07-26T08:01:47.367Z,4.18
2022-07-26T08:04:49.819Z,4.40
2022-07-26T08:07:52.451Z,4.45
2022-07-26T08:13:58.883Z,4.18
2022-07-26T08:17:01.846Z,4.20
2022-07-26T08:20:07.978Z,3.90
2022-07-26T08:23:13.938Z,4.15
2022-07-26T08:26:16.069Z,5.35
2022-07-26T08:29:18.497Z,4.60
2022-07-26T08:32:20.667Z,4.83
2022-07-26T08:35:23.054Z,3.67
2022-07-26T08:38:25.299Z,4.63
2022-07-26T08:41:28.458Z,4.07
2022-07-26T08:44:31.018Z,4.20
2022-07-26T08:47:38.085Z,5.25
2022-07-26T08:50:45.265Z,4.07
2022-07-26T08:53:47.874Z,5.65
2022-07-26T08:56:52.299Z,5.40
2022-07-26T09:00:22.000Z,4.82
2022-07-26T09:03:25.997Z,5.72
2022-07-26T09:06:28.531Z,4.57
2022-07-26T09:09:32.954Z,4.72
2022-07-26T09:12:36.439Z,4.65
2022-07-26T09:15:38.734Z,4.37
2022-07-26T09:18:41.154Z,4.75
2022-07-26T09:21:43.660Z,6.87
2022-07-26T09:24:47.913Z,5.05
2022-07-26T09:27:50.921Z,5.35
2022-07-26T09:30:59.785Z,5.32
2022-07-26T09:34:02.630Z,5.40
2022-07-26T09:37:08.600Z,4.90
2022-07-26T09:40:15.656Z,4.70
2022-07-26T09:43:24.130Z,4.78
2022-07-26T09:46:30.965Z,4.25
2022-07-26T09:49:40.699Z,4.05
2022-07-26T09:53:03.728Z,4.43
2022-07-26T09:56:06.415Z,4.53
2022-07-26T09:59:09.267Z,3.78
2022-07-26T10:05:16.262Z,4.62
2022-07-26T10:08:18.838Z,3.83
2022-07-26T10:11:22.110Z,3.87
2022-07-26T10:14:33.481Z,5.32
2022-07-26T10:17:41.726Z,4.25
2022-07-26T10:20:45.502Z,5.55
2022-07-26T10:23:53.515Z,4.90
2022-07-26T10:26:55.914Z,4.53
2022-07-26T10:30:35.345Z,5.12
2022-07-26T10:33:44.024Z,4.95
2022-07-26T10:36:58.722Z,4.62
2022-07-26T10:40:19.223Z,6.93
2022-07-26T10:47:04.280Z,5.10
2022-07-26T10:50:07.939Z,5.43
2022-07-26T10:56:13.820Z,4.37
2022-07-26T10:59:54.365Z,5.35
2022-07-26T11:02:58.635Z,5.05
2022-07-26T11:06:18.320Z,5.30
2022-07-26T11:09:21.286Z,4.68
2022-07-26T11:12:24.144Z,5.75
2022-07-26T11:15:26.723Z,4.20
2022-07-26T11:18:32.734Z,5.60
2022-07-26T11:21:35.219Z,5.00
2022-07-26T11:24:41.078Z,5.68
2022-07-26T11:28:08.285Z,5.43
2022-07-26T11:31:10.588Z,5.50
2022-07-26T11:34:22.391Z,4.55
2022-07-26T11:37:24.625Z,6.12
2022-07-26T11:40:47.106Z,5.87
2022-07-26T11:43:50.336Z,5.90
2022-07-26T11:46:53.375Z,6.15
2022-07-26T11:53:22.491Z,6.28
2022-07-26T11:56:24.978Z,5.90
2022-07-26T11:59:29.846Z,5.78
2022-07-26T12:02:32.119Z,5.90
2022-07-26T12:05:34.710Z,6.45
2022-07-26T12:08:47.010Z,5.83
2022-07-26T12:11:52.886Z,6.00
2022-07-26T12:15:03.976Z,5.40
2022-07-26T12:18:08.040Z,4.87
2022-07-26T12:21:11.198Z,5.07
2022-07-26T12:24:35.997Z,5.75
2022-07-26T12:27:45.940Z,4.68
2022-07-26T12:30:48.509Z,4.80
2022-07-26T12:33:50.716Z,5.03
2022-07-26T12:36:53.246Z,4.97
2022-07-26T12:40:12.240Z,5.07
2022-07-26T12:43:14.624Z,4.60
2022-07-26T12:46:16.756Z,4.95
2022-07-26T12:49:19.324Z,3.92
2022-07-26T12:52:23.221Z,4.40
2022-07-26T12:55:26.266Z,4.55
2022-07-26T12:58:28.369Z,4.25
2022-07-26T13:01:31.971Z,4.53
2022-07-26T13:04:34.568Z,3.80
2022-07-26T13:07:37.016Z,5.15
2022-07-26T13:10:41.718Z,5.10
2022-07-26T13:13:45.058Z,4.28
2022-07-26T13:16:47.310Z,5.00
2022-07-26T13:19:49.782Z,5.03
2022-07-26T13:22:51.909Z,4.47
2022-07-26T13:25:55.986Z,5.40
2022-07-26T13:28:58.555Z,5.82
2022-07-26T13:32:01.127Z,5.80
2022-07-26T13:35:03.416Z,5.87
2022-07-26T13:38:05.947Z,5.15
2022-07-26T13:45:00.556Z,6.25
2022-07-26T13:48:03.224Z,5.07
2022-07-26T13:51:05.719Z,5.37
2022-07-26T13:54:08.434Z,5.55
2022-07-26T13:57:10.806Z,4.95
2022-07-26T14:00:13.719Z,5.10
2022-07-26T14:03:16.281Z,5.03
2022-07-26T14:06:19.279Z,5.03
2022-07-26T14:12:23.940Z,6.65
2022-07-26T14:15:26.348Z,5.55
2022-07-26T14:18:28.438Z,6.97
2022-07-26T14:21:38.603Z,5.50
2022-07-26T14:24:53.826Z,6.45
2022-07-26T14:27:56.259Z,6.97
2022-07-26T14:30:58.405Z,6.18
2022-07-26T14:34:00.813Z,6.70
2022-07-26T14:37:08.476Z,6.70
2022-07-26T14:40:25.517Z,6.05
2022-07-26T14:43:27.995Z,7.03
2022-07-26T14:46:30.745Z,6.07
2022-07-26T14:49:32.981Z,7.05
2022-07-26T14:52:43.541Z,7.32
2022-07-26T14:55:45.690Z,6.70
2022-07-26T14:58:48.125Z,7.12
2022-07-26T15:01:50.281Z,7.72
2022-07-26T15:04:52.722Z,7.07
2022-07-26T15:07:55.023Z,6.70
2022-07-26T15:10:57.529Z,7.45
2022-07-26T15:14:03.974Z,6.63
2022-07-26T15:17:09.187Z,8.38
2022-07-26T15:20:11.431Z,7.35
2022-07-26T15:23:14.999Z,7.15
2022-07-26T15:26:17.192Z,7.22
2022-07-26T15:29:19.813Z,6.55
2022-07-26T15:32:22.010Z,8.13
2022-07-26T15:35:24.554Z,7.40
2022-07-26T15:38:26.732Z,6.95
2022-07-26T15:41:29.125Z,6.43
2022-07-26T15:44:31.268Z,7.32
2022-07-26T15:50:55.788Z,6.85
2022-07-26T15:53:58.571Z,8.33
2022-07-26T15:57:00.747Z,6.85
2022-07-26T16:00:11.008Z,6.75
2022-07-26T16:03:14.714Z,6.80
2022-07-26T16:06:17.512Z,7.53
2022-07-26T16:09:20.228Z,7.05
2022-07-26T16:12:23.218Z,8.55
2022-07-26T16:15:25.767Z,7.75
2022-07-26T16:18:27.865Z,7.40
2022-07-26T16:21:30.252Z,7.33
2022-07-26T16:24:33.428Z,7.57
2022-07-26T16:27:35.881Z,7.55
2022-07-26T16:30:38.198Z,6.70
2022-07-26T16:33:46.375Z,7.50
2022-07-26T16:36:48.966Z,8.43
2022-07-26T16:39:51.446Z,8.32
2022-07-26T16:42:53.589Z,8.45
2022-07-26T16:45:55.971Z,9.50
2022-07-26T16:48:58.346Z,10.25
2022-07-26T16:52:00.797Z,10.90
2022-07-26T16:55:04.182Z,12.50
2022-07-26T16:58:06.606Z,11.93
2022-07-26T17:01:08.793Z,11.30
2022-07-26T17:04:11.274Z,12.23
2022-07-26T17:07:28.856Z,10.15
2022-07-26T17:10:31.398Z,11.50
2022-07-26T17:13:33.657Z,9.43
2022-07-26T17:16:36.405Z,9.43
2022-07-26T17:19:38.739Z,11.30
2022-07-26T17:22:41.149Z,9.10
2022-07-26T17:25:43.240Z,10.80
2022-07-26T17:28:46.503Z,10.23
2022-07-26T17:31:50.159Z,11.35
2022-07-26T17:34:52.622Z,10.27
2022-07-26T17:37:56.055Z,9.73
2022-07-26T17:40:58.878Z,10.68
2022-07-26T17:44:03.082Z,11.15
2022-07-26T17:47:06.014Z,11.75
2022-07-26T17:50:43.423Z,11.50
2022-07-26T17:53:51.033Z,10.63
2022-07-26T17:56:55.251Z,10.82
2022-07-26T17:59:58.575Z,11.10
2022-07-26T18:03:02.906Z,12.18
2022-07-26T18:06:06.511Z,11.67
2022-07-26T18:09:09.918Z,11.55
2022-07-26T18:12:12.536Z,10.90
2022-07-26T18:15:14.689Z,12.40
2022-07-26T18:18:18.471Z,10.73
2022-07-26T18:21:20.573Z,14.13
2022-07-26T18:24:22.960Z,12.13
2022-07-26T18:27:28.068Z,13.18
2022-07-26T18:30:32.053Z,12.85
2022-07-26T18:33:34.191Z,12.55
2022-07-26T18:36:36.642Z,13.33
2022-07-26T18:39:38.742Z,12.55
2022-07-26T18:42:41.207Z,13.10
2022-07-26T18:45:43.673Z,12.85
2022-07-26T18:48:46.176Z,13.02
2022-07-26T18:51:49.064Z,13.85
2022-07-26T18:57:55.254Z,14.85
2022-07-26T19:00:57.619Z,13.85
2022-07-26T19:04:03.481Z,14.02
2022-07-26T19:07:09.115Z,14.27
2022-07-26T19:10:12.021Z,13.13
2022-07-26T19:13:14.434Z,14.10
2022-07-26T19:16:16.659Z,15.43
2022-07-26T19:19:19.120Z,14.50
2022-07-26T19:22:21.387Z,13.00
2022-07-26T19:25:23.771Z,14.07
2022-07-26T19:28:26.024Z,14.73
2022-07-26T19:31:28.449Z,13.20
2022-07-26T19:34:30.652Z,14.60
2022-07-26T19:37:33.318Z,13.40
2022-07-26T19:40:35.551Z,13.95
2022-07-26T19:43:37.934Z,14.17
2022-07-26T19:46:40.511Z,13.30
2022-07-26T19:49:43.101Z,15.23
2022-07-26T19:52:45.223Z,12.65
2022-07-26T19:55:47.714Z,13.80
2022-07-26T19:58:50.010Z,13.90
2022-07-26T20:01:55.138Z,12.95
2022-07-26T20:05:00.788Z,10.80
2022-07-26T20:08:02.969Z,11.95
2022-07-26T20:11:06.133Z,13.17
2022-07-26T20:14:08.522Z,12.40
2022-07-26T20:17:12.815Z,12.77
2022-07-26T20:20:17.708Z,11.85
2022-07-26T20:23:20.423Z,11.12
2022-07-26T20:26:22.969Z,10.67
2022-07-26T20:29:25.388Z,10.10
2022-07-26T20:32:27.535Z,9.35
2022-07-26T20:35:30.590Z,10.43
2022-07-26T20:38:32.742Z,10.52
2022-07-26T20:41:35.192Z,9.77
2022-07-26T20:44:37.938Z,9.27
2022-07-26T20:47:42.867Z,9.52
2022-07-26T20:50:45.100Z,8.77
2022-07-26T20:53:47.575Z,8.23
2022-07-26T20:56:49.869Z,7.55
2022-07-26T20:59:52.435Z,8.43
2022-07-26T21:02:54.807Z,8.82
2022-07-26T21:05:57.588Z,7.35
2022-07-26T21:08:59.954Z,7.93
2022-07-26T21:12:02.323Z,7.67
2022-07-26T21:15:05.123Z,7.45
2022-07-26T21:18:07.623Z,8.07
2022-07-26T21:21:09.822Z,6.93
2022-07-26T21:24:12.286Z,8.40
2022-07-26T21:27:14.414Z,6.68
2022-07-26T21:30:16.834Z,5.97
2022-07-26T21:33:18.990Z,6.18
2022-07-26T21:36:21.462Z,5.68
2022-07-26T21:39:23.624Z,6.07
2022-07-26T21:42:26.762Z,6.22
2022-07-26T21:45:29.207Z,5.82
2022-07-26T21:48:31.711Z,6.13
2022-07-26T21:51:33.910Z,5.47
2022-07-26T21:54:36.354Z,5.65
2022-07-26T21:57:44.249Z,5.57
2022-07-26T22:00:46.722Z,5.90
2022-07-26T22:03:49.188Z,5.07
2022-07-26T22:06:51.314Z,5.78
2022-07-26T22:09:53.735Z,5.37
2022-07-26T22:12:55.861Z,6.03
2022-07-26T22:15:58.477Z,5.80
2022-07-26T22:19:02.471Z,5.75
2022-07-26T22:22:05.684Z,5.65
2022-07-26T22:25:08.310Z,5.43
2022-07-26T22:28:11.977Z,4.60
2022-07-26T22:31:19.975Z,5.90
2022-07-26T22:34:22.450Z,5.17
2022-07-26T22:37:24.608Z,5.10
2022-07-26T22:40:27.024Z,4.80
2022-07-26T22:43:29.153Z,4.80
2022-07-26T22:46:31.672Z,4.93
2022-07-26T22:49:33.967Z,4.70
2022-07-26T22:52:37.269Z,4.23
2022-07-26T22:55:39.405Z,4.62
2022-07-26T22:58:41.792Z,4.22
2022-07-26T23:01:46.194Z,4.78
2022-07-26T23:04:48.702Z,4.20
2022-07-26T23:07:50.915Z,4.43
2022-07-26T23:10:53.502Z,4.57
2022-07-26T23:13:58.951Z,4.62
2022-07-26T23:17:01.817Z,5.22
2022-07-26T23:20:06.301Z,4.70
2022-07-26T23:23:09.491Z,4.15
2022-07-26T23:26:11.735Z,4.45
2022-07-26T23:29:14.616Z,6.50
2022-07-26T23:32:17.279Z,5.60
2022-07-26T23:35:21.207Z,4.03
2022-07-26T23:38:23.326Z,3.75
2022-07-26T23:41:28.561Z,4.45
2022-07-26T23:44:30.882Z,4.20
2022-07-26T23:47:33.290Z,4.47
2022-07-26T23:50:35.419Z,3.47
2022-07-26T23:53:37.887Z,4.75
2022-07-26T23:56:40.263Z,5.78
2022-07-26T23:59:42.732Z,3.50
